sensor_id;sensor_type;location;lat;lon;timestamp;temperature;humidity
14475;DHT22;7323;50.848;4.334;2023-05-21T00:01:55;15.90;1.00
14475;DHT22;7323;50.848;4.334;2023-05-21T00:04:21;15.90;1.00
14475;DHT22;7323;50.848;4.334;2023-05-21T00:06:47;16.00;1.00
14475;DHT22;7323;50.848;4.334;2023-05-21T00:09:12;16.00;1.00
14475;DHT22;7323;50.848;4.334;2023-05-21T00:11:38;16.00;1.00
14475;DHT22;7323;50.848;4.334;2023-05-21T00:14:05;15.90;1.00
14475;DHT22;7323;50.848;4.334;2023-05-21T00:16:30;15.80;1.00
14475;DHT22;7323;50.848;4.334;2023-05-21T00:18:56;15.80;1.00
14475;DHT22;7323;50.848;4.334;2023-05-21T00:21:22;15.70;1.00
14475;DHT22;7323;50.848;4.334;2023-05-21T00:23:51;15.70;1.00
14475;DHT22;7323;50.848;4.334;2023-05-21T00:26:20;15.60;1.00
14475;DHT22;7323;50.848;4.334;2023-05-21T00:28:46;15.50;1.00
14475;DHT22;7323;50.848;4.334;2023-05-21T00:31:12;15.50;1.00
14475;DHT22;7323;50.848;4.334;2023-05-21T00:33:37;15.50;1.00
14475;DHT22;7323;50.848;4.334;2023-05-21T00:36:03;15.50;1.00
14475;DHT22;7323;50.848;4.334;2023-05-21T00:38:31;15.40;1.00
14475;DHT22;7323;50.848;4.334;2023-05-21T00:41:04;15.40;1.00
14475;DHT22;7323;50.848;4.334;2023-05-21T00:43:29;15.40;1.00
14475;DHT22;7323;50.848;4.334;2023-05-21T00:45:56;15.40;1.00
14475;DHT22;7323;50.848;4.334;2023-05-21T00:48:24;15.30;1.00
14475;DHT22;7323;50.848;4.334;2023-05-21T00:50:50;15.30;1.00
14475;DHT22;7323;50.848;4.334;2023-05-21T00:53:17;15.20;1.00
14475;DHT22;7323;50.848;4.334;2023-05-21T00:55:44;15.20;1.00
14475;DHT22;7323;50.848;4.334;2023-05-21T00:58:10;15.20;1.00
14475;DHT22;7323;50.848;4.334;2023-05-21T01:00:36;15.20;1.00
14475;DHT22;7323;50.848;4.334;2023-05-21T01:03:03;15.20;1.00
14475;DHT22;7323;50.848;4.334;2023-05-21T01:05:29;15.20;1.00
14475;DHT22;7323;50.848;4.334;2023-05-21T01:07:55;15.20;1.00
14475;DHT22;7323;50.848;4.334;2023-05-21T01:10:23;14.90;1.00
14475;DHT22;7323;50.848;4.334;2023-05-21T01:12:50;15.10;1.00
14475;DHT22;7323;50.848;4.334;2023-05-21T01:15:17;15.10;1.00
14475;DHT22;7323;50.848;4.334;2023-05-21T01:17:43;15.00;1.00
14475;DHT22;7323;50.848;4.334;2023-05-21T01:20:11;15.00;1.00
14475;DHT22;7323;50.848;4.334;2023-05-21T01:22:55;14.90;1.00
14475;DHT22;7323;50.848;4.334;2023-05-21T01:25:21;14.90;1.00
14475;DHT22;7323;50.848;4.334;2023-05-21T01:27:48;14.90;1.00
14475;DHT22;7323;50.848;4.334;2023-05-21T01:30:15;14.80;1.00
14475;DHT22;7323;50.848;4.334;2023-05-21T01:35:25;14.90;1.00
14475;DHT22;7323;50.848;4.334;2023-05-21T01:38:06;14.80;1.00
14475;DHT22;7323;50.848;4.334;2023-05-21T01:40:57;14.80;1.00
14475;DHT22;7323;50.848;4.334;2023-05-21T01:43:26;14.80;1.00
14475;DHT22;7323;50.848;4.334;2023-05-21T01:45:54;14.80;1.00
14475;DHT22;7323;50.848;4.334;2023-05-21T01:48:23;14.80;1.00
14475;DHT22;7323;50.848;4.334;2023-05-21T01:50:50;14.80;1.00
14475;DHT22;7323;50.848;4.334;2023-05-21T01:53:17;14.80;1.00
14475;DHT22;7323;50.848;4.334;2023-05-21T01:55:43;14.70;1.00
14475;DHT22;7323;50.848;4.334;2023-05-21T01:58:09;14.70;1.00
14475;DHT22;7323;50.848;4.334;2023-05-21T02:00:35;14.60;1.00
14475;DHT22;7323;50.848;4.334;2023-05-21T02:03:02;14.50;1.00
14475;DHT22;7323;50.848;4.334;2023-05-21T02:05:27;14.40;1.00
14475;DHT22;7323;50.848;4.334;2023-05-21T02:07:53;14.40;1.00
14475;DHT22;7323;50.848;4.334;2023-05-21T02:10:19;14.40;1.00
14475;DHT22;7323;50.848;4.334;2023-05-21T02:12:45;14.40;1.00
14475;DHT22;7323;50.848;4.334;2023-05-21T02:15:10;14.40;1.00
14475;DHT22;7323;50.848;4.334;2023-05-21T02:17:38;14.40;1.00
14475;DHT22;7323;50.848;4.334;2023-05-21T02:20:06;14.30;1.00
14475;DHT22;7323;50.848;4.334;2023-05-21T02:22:45;14.30;1.00
14475;DHT22;7323;50.848;4.334;2023-05-21T02:25:13;14.30;1.00
14475;DHT22;7323;50.848;4.334;2023-05-21T02:27:40;14.30;1.00
14475;DHT22;7323;50.848;4.334;2023-05-21T02:30:09;14.30;1.00
14475;DHT22;7323;50.848;4.334;2023-05-21T02:32:35;14.30;1.00
14475;DHT22;7323;50.848;4.334;2023-05-21T02:35:02;14.20;1.00
14475;DHT22;7323;50.848;4.334;2023-05-21T02:37:29;14.20;1.00
14475;DHT22;7323;50.848;4.334;2023-05-21T02:39:58;14.20;1.00
14475;DHT22;7323;50.848;4.334;2023-05-21T02:42:24;14.20;1.00
14475;DHT22;7323;50.848;4.334;2023-05-21T02:44:51;14.10;1.00
14475;DHT22;7323;50.848;4.334;2023-05-21T02:47:18;14.10;1.00
14475;DHT22;7323;50.848;4.334;2023-05-21T02:49:44;14.20;1.00
14475;DHT22;7323;50.848;4.334;2023-05-21T02:52:10;14.20;1.00
14475;DHT22;7323;50.848;4.334;2023-05-21T02:54:37;14.20;1.00
14475;DHT22;7323;50.848;4.334;2023-05-21T02:57:09;14.20;1.00
14475;DHT22;7323;50.848;4.334;2023-05-21T02:59:44;14.10;1.00
14475;DHT22;7323;50.848;4.334;2023-05-21T03:02:10;14.10;1.00
14475;DHT22;7323;50.848;4.334;2023-05-21T03:04:37;14.10;1.00
14475;DHT22;7323;50.848;4.334;2023-05-21T03:07:13;14.20;1.00
14475;DHT22;7323;50.848;4.334;2023-05-21T03:09:40;14.20;1.00
14475;DHT22;7323;50.848;4.334;2023-05-21T03:12:09;14.20;1.00
14475;DHT22;7323;50.848;4.334;2023-05-21T03:14:35;14.20;1.00
14475;DHT22;7323;50.848;4.334;2023-05-21T03:17:01;14.10;1.00
14475;DHT22;7323;50.848;4.334;2023-05-21T03:19:31;14.10;1.00
14475;DHT22;7323;50.848;4.334;2023-05-21T03:22:00;14.10;1.00
14475;DHT22;7323;50.848;4.334;2023-05-21T03:24:27;14.10;1.00
14475;DHT22;7323;50.848;4.334;2023-05-21T03:26:53;14.20;1.00
14475;DHT22;7323;50.848;4.334;2023-05-21T03:29:19;14.20;1.00
14475;DHT22;7323;50.848;4.334;2023-05-21T03:31:45;14.20;1.00
14475;DHT22;7323;50.848;4.334;2023-05-21T03:34:11;14.20;1.00
14475;DHT22;7323;50.848;4.334;2023-05-21T03:36:36;14.20;1.00
14475;DHT22;7323;50.848;4.334;2023-05-21T03:39:02;14.10;1.00
14475;DHT22;7323;50.848;4.334;2023-05-21T03:41:29;14.00;1.00
14475;DHT22;7323;50.848;4.334;2023-05-21T03:43:54;13.80;1.00
14475;DHT22;7323;50.848;4.334;2023-05-21T03:46:20;13.80;1.00
14475;DHT22;7323;50.848;4.334;2023-05-21T03:48:46;13.80;1.00
14475;DHT22;7323;50.848;4.334;2023-05-21T03:51:11;13.70;1.00
14475;DHT22;7323;50.848;4.334;2023-05-21T03:53:37;13.70;1.00
14475;DHT22;7323;50.848;4.334;2023-05-21T03:56:03;13.70;1.00
14475;DHT22;7323;50.848;4.334;2023-05-21T03:58:29;13.70;1.00
14475;DHT22;7323;50.848;4.334;2023-05-21T04:00:55;13.60;1.00
14475;DHT22;7323;50.848;4.334;2023-05-21T04:03:21;13.60;1.40
14475;DHT22;7323;50.848;4.334;2023-05-21T04:05:46;13.60;1.80
14475;DHT22;7323;50.848;4.334;2023-05-21T04:08:14;13.50;4.10
14475;DHT22;7323;50.848;4.334;2023-05-21T04:10:40;13.50;6.00
14475;DHT22;7323;50.848;4.334;2023-05-21T04:13:05;13.50;5.60
14475;DHT22;7323;50.848;4.334;2023-05-21T04:15:31;13.50;7.00
14475;DHT22;7323;50.848;4.334;2023-05-21T04:18:00;13.50;6.30
14475;DHT22;7323;50.848;4.334;2023-05-21T04:20:25;13.50;6.20
14475;DHT22;7323;50.848;4.334;2023-05-21T04:22:51;13.50;8.90
14475;DHT22;7323;50.848;4.334;2023-05-21T04:25:17;13.50;8.70
14475;DHT22;7323;50.848;4.334;2023-05-21T04:27:44;13.50;8.40
14475;DHT22;7323;50.848;4.334;2023-05-21T04:30:12;13.60;7.50
14475;DHT22;7323;50.848;4.334;2023-05-21T04:32:38;13.60;6.70
14475;DHT22;7323;50.848;4.334;2023-05-21T04:35:04;13.60;6.00
14475;DHT22;7323;50.848;4.334;2023-05-21T04:37:30;13.60;6.50
14475;DHT22;7323;50.848;4.334;2023-05-21T04:39:59;13.60;7.70
14475;DHT22;7323;50.848;4.334;2023-05-21T04:42:28;13.70;7.50
14475;DHT22;7323;50.848;4.334;2023-05-21T04:44:54;13.70;6.10
14475;DHT22;7323;50.848;4.334;2023-05-21T04:47:20;13.60;6.90
14475;DHT22;7323;50.848;4.334;2023-05-21T04:49:46;13.60;8.40
14475;DHT22;7323;50.848;4.334;2023-05-21T04:52:12;13.60;9.60
14475;DHT22;7323;50.848;4.334;2023-05-21T04:54:38;13.60;10.00
14475;DHT22;7323;50.848;4.334;2023-05-21T04:57:06;13.60;9.30
14475;DHT22;7323;50.848;4.334;2023-05-21T04:59:36;13.60;9.10
14475;DHT22;7323;50.848;4.334;2023-05-21T05:02:02;13.60;10.60
14475;DHT22;7323;50.848;4.334;2023-05-21T05:04:27;13.60;10.20
14475;DHT22;7323;50.848;4.334;2023-05-21T05:06:53;13.70;9.00
14475;DHT22;7323;50.848;4.334;2023-05-21T05:09:19;13.70;9.00
14475;DHT22;7323;50.848;4.334;2023-05-21T05:11:50;13.80;6.50
14475;DHT22;7323;50.848;4.334;2023-05-21T05:14:15;13.90;6.10
14475;DHT22;7323;50.848;4.334;2023-05-21T05:16:41;13.90;4.40
14475;DHT22;7323;50.848;4.334;2023-05-21T05:19:07;13.90;5.50
14475;DHT22;7323;50.848;4.334;2023-05-21T05:21:33;14.00;4.60
14475;DHT22;7323;50.848;4.334;2023-05-21T05:23:59;14.00;2.80
14475;DHT22;7323;50.848;4.334;2023-05-21T05:26:25;14.00;3.60
14475;DHT22;7323;50.848;4.334;2023-05-21T05:28:51;13.90;4.70
14475;DHT22;7323;50.848;4.334;2023-05-21T05:31:18;13.90;5.00
14475;DHT22;7323;50.848;4.334;2023-05-21T05:33:44;13.90;6.60
14475;DHT22;7323;50.848;4.334;2023-05-21T05:36:10;13.90;8.70
14475;DHT22;7323;50.848;4.334;2023-05-21T05:38:36;13.90;9.40
14475;DHT22;7323;50.848;4.334;2023-05-21T05:41:01;13.90;9.50
14475;DHT22;7323;50.848;4.334;2023-05-21T05:43:27;13.90;8.90
14475;DHT22;7323;50.848;4.334;2023-05-21T05:45:53;14.00;8.90
14475;DHT22;7323;50.848;4.334;2023-05-21T05:48:18;14.00;7.80
14475;DHT22;7323;50.848;4.334;2023-05-21T05:50:46;14.10;7.50
14475;DHT22;7323;50.848;4.334;2023-05-21T05:53:15;14.10;6.70
14475;DHT22;7323;50.848;4.334;2023-05-21T05:55:40;14.20;6.90
14475;DHT22;7323;50.848;4.334;2023-05-21T05:58:06;14.30;5.00
14475;DHT22;7323;50.848;4.334;2023-05-21T06:00:32;14.30;3.80
14475;DHT22;7323;50.848;4.334;2023-05-21T06:02:58;14.30;3.40
14475;DHT22;7323;50.848;4.334;2023-05-21T06:05:23;14.40;2.40
14475;DHT22;7323;50.848;4.334;2023-05-21T06:07:50;14.50;1.00
14475;DHT22;7323;50.848;4.334;2023-05-21T06:10:16;14.50;1.00
14475;DHT22;7323;50.848;4.334;2023-05-21T06:12:41;14.50;1.00
14475;DHT22;7323;50.848;4.334;2023-05-21T06:15:08;14.60;1.00
14475;DHT22;7323;50.848;4.334;2023-05-21T06:17:33;14.60;1.00
14475;DHT22;7323;50.848;4.334;2023-05-21T06:19:59;14.50;1.00
14475;DHT22;7323;50.848;4.334;2023-05-21T06:22:25;14.60;1.00
14475;DHT22;7323;50.848;4.334;2023-05-21T06:24:51;14.80;1.00
14475;DHT22;7323;50.848;4.334;2023-05-21T06:27:16;14.80;1.00
14475;DHT22;7323;50.848;4.334;2023-05-21T06:29:42;14.80;1.00
14475;DHT22;7323;50.848;4.334;2023-05-21T06:32:08;14.90;1.00
14475;DHT22;7323;50.848;4.334;2023-05-21T06:34:33;14.90;1.00
14475;DHT22;7323;50.848;4.334;2023-05-21T06:36:59;14.90;1.00
14475;DHT22;7323;50.848;4.334;2023-05-21T06:39:25;15.00;1.00
14475;DHT22;7323;50.848;4.334;2023-05-21T06:41:51;14.90;1.00
14475;DHT22;7323;50.848;4.334;2023-05-21T06:44:17;14.70;1.00
14475;DHT22;7323;50.848;4.334;2023-05-21T06:46:43;14.70;1.00
14475;DHT22;7323;50.848;4.334;2023-05-21T06:49:11;14.80;1.00
14475;DHT22;7323;50.848;4.334;2023-05-21T06:51:40;14.90;1.00
14475;DHT22;7323;50.848;4.334;2023-05-21T06:54:05;14.90;1.00
14475;DHT22;7323;50.848;4.334;2023-05-21T06:56:31;15.00;1.00
14475;DHT22;7323;50.848;4.334;2023-05-21T06:58:57;15.10;1.00
14475;DHT22;7323;50.848;4.334;2023-05-21T07:01:23;15.10;1.00
14475;DHT22;7323;50.848;4.334;2023-05-21T07:03:49;15.20;1.00
14475;DHT22;7323;50.848;4.334;2023-05-21T07:06:15;15.20;1.00
14475;DHT22;7323;50.848;4.334;2023-05-21T07:08:41;15.30;1.00
14475;DHT22;7323;50.848;4.334;2023-05-21T07:11:07;15.30;1.00
14475;DHT22;7323;50.848;4.334;2023-05-21T07:13:34;15.40;1.00
14475;DHT22;7323;50.848;4.334;2023-05-21T07:16:00;15.60;1.00
14475;DHT22;7323;50.848;4.334;2023-05-21T07:18:26;15.90;1.00
14475;DHT22;7323;50.848;4.334;2023-05-21T07:20:52;16.00;1.00
14475;DHT22;7323;50.848;4.334;2023-05-21T07:23:18;16.10;1.00
14475;DHT22;7323;50.848;4.334;2023-05-21T07:25:46;16.20;1.00
14475;DHT22;7323;50.848;4.334;2023-05-21T07:28:12;16.20;1.00
14475;DHT22;7323;50.848;4.334;2023-05-21T07:30:38;16.20;1.00
14475;DHT22;7323;50.848;4.334;2023-05-21T07:33:04;16.20;1.00
14475;DHT22;7323;50.848;4.334;2023-05-21T07:35:30;16.40;1.00
14475;DHT22;7323;50.848;4.334;2023-05-21T07:37:55;16.50;1.00
14475;DHT22;7323;50.848;4.334;2023-05-21T07:40:21;16.60;1.00
14475;DHT22;7323;50.848;4.334;2023-05-21T07:42:47;16.50;1.00
14475;DHT22;7323;50.848;4.334;2023-05-21T07:45:14;16.40;1.00
14475;DHT22;7323;50.848;4.334;2023-05-21T07:47:39;16.40;1.00
14475;DHT22;7323;50.848;4.334;2023-05-21T07:50:06;16.40;1.00
14475;DHT22;7323;50.848;4.334;2023-05-21T07:52:31;16.30;1.00
14475;DHT22;7323;50.848;4.334;2023-05-21T07:54:57;16.30;1.00
14475;DHT22;7323;50.848;4.334;2023-05-21T07:57:23;16.50;1.00
14475;DHT22;7323;50.848;4.334;2023-05-21T07:59:48;16.80;1.00
14475;DHT22;7323;50.848;4.334;2023-05-21T08:02:14;16.80;1.00
14475;DHT22;7323;50.848;4.334;2023-05-21T08:04:40;16.80;1.00
14475;DHT22;7323;50.848;4.334;2023-05-21T08:07:06;16.90;1.00
14475;DHT22;7323;50.848;4.334;2023-05-21T08:09:32;16.90;1.00
14475;DHT22;7323;50.848;4.334;2023-05-21T08:11:58;16.90;1.00
14475;DHT22;7323;50.848;4.334;2023-05-21T08:14:24;16.80;1.00
14475;DHT22;7323;50.848;4.334;2023-05-21T08:16:49;17.00;1.00
14475;DHT22;7323;50.848;4.334;2023-05-21T08:19:15;17.10;1.00
14475;DHT22;7323;50.848;4.334;2023-05-21T08:21:41;16.90;1.00
14475;DHT22;7323;50.848;4.334;2023-05-21T08:24:06;16.80;1.00
14475;DHT22;7323;50.848;4.334;2023-05-21T08:26:32;16.90;1.00
14475;DHT22;7323;50.848;4.334;2023-05-21T08:28:59;17.00;1.00
14475;DHT22;7323;50.848;4.334;2023-05-21T08:31:25;17.00;1.00
14475;DHT22;7323;50.848;4.334;2023-05-21T08:33:52;17.20;1.00
14475;DHT22;7323;50.848;4.334;2023-05-21T08:36:19;17.30;1.00
14475;DHT22;7323;50.848;4.334;2023-05-21T08:38:44;17.40;1.00
14475;DHT22;7323;50.848;4.334;2023-05-21T08:41:11;17.50;1.00
14475;DHT22;7323;50.848;4.334;2023-05-21T08:43:38;17.70;1.00
14475;DHT22;7323;50.848;4.334;2023-05-21T08:46:08;17.90;1.00
14475;DHT22;7323;50.848;4.334;2023-05-21T08:48:36;17.80;1.00
14475;DHT22;7323;50.848;4.334;2023-05-21T08:51:02;17.70;1.00
14475;DHT22;7323;50.848;4.334;2023-05-21T08:53:28;17.50;1.00
14475;DHT22;7323;50.848;4.334;2023-05-21T08:55:54;17.40;1.00
14475;DHT22;7323;50.848;4.334;2023-05-21T08:58:20;17.50;1.00
14475;DHT22;7323;50.848;4.334;2023-05-21T09:00:47;17.70;1.00
14475;DHT22;7323;50.848;4.334;2023-05-21T09:03:14;17.70;1.00
14475;DHT22;7323;50.848;4.334;2023-05-21T09:05:41;17.80;1.00
14475;DHT22;7323;50.848;4.334;2023-05-21T09:08:18;18.00;1.00
14475;DHT22;7323;50.848;4.334;2023-05-21T09:10:49;18.20;1.00
14475;DHT22;7323;50.848;4.334;2023-05-21T09:13:19;18.40;1.00
14475;DHT22;7323;50.848;4.334;2023-05-21T09:15:45;18.40;1.00
14475;DHT22;7323;50.848;4.334;2023-05-21T09:18:12;18.60;1.00
14475;DHT22;7323;50.848;4.334;2023-05-21T09:20:38;18.60;1.00
14475;DHT22;7323;50.848;4.334;2023-05-21T09:23:06;18.60;1.00
14475;DHT22;7323;50.848;4.334;2023-05-21T09:25:37;18.60;1.00
14475;DHT22;7323;50.848;4.334;2023-05-21T09:28:11;18.70;1.00
14475;DHT22;7323;50.848;4.334;2023-05-21T09:30:43;18.60;1.00
14475;DHT22;7323;50.848;4.334;2023-05-21T09:33:09;18.70;1.00
14475;DHT22;7323;50.848;4.334;2023-05-21T09:35:34;18.80;1.00
14475;DHT22;7323;50.848;4.334;2023-05-21T09:38:01;18.80;1.00
14475;DHT22;7323;50.848;4.334;2023-05-21T09:40:33;18.80;1.00
14475;DHT22;7323;50.848;4.334;2023-05-21T09:43:00;19.00;1.00
14475;DHT22;7323;50.848;4.334;2023-05-21T09:45:27;19.00;1.00
14475;DHT22;7323;50.848;4.334;2023-05-21T09:47:54;19.00;1.00
14475;DHT22;7323;50.848;4.334;2023-05-21T09:50:27;19.10;1.00
14475;DHT22;7323;50.848;4.334;2023-05-21T09:52:53;19.20;1.00
14475;DHT22;7323;50.848;4.334;2023-05-21T09:55:25;19.20;1.00
14475;DHT22;7323;50.848;4.334;2023-05-21T09:57:51;19.40;1.00
14475;DHT22;7323;50.848;4.334;2023-05-21T10:00:21;19.50;1.00
14475;DHT22;7323;50.848;4.334;2023-05-21T10:02:49;19.60;1.00
14475;DHT22;7323;50.848;4.334;2023-05-21T10:05:18;19.60;1.00
14475;DHT22;7323;50.848;4.334;2023-05-21T10:07:49;19.70;1.00
14475;DHT22;7323;50.848;4.334;2023-05-21T10:10:19;19.90;1.00
14475;DHT22;7323;50.848;4.334;2023-05-21T10:12:46;19.90;1.00
14475;DHT22;7323;50.848;4.334;2023-05-21T10:15:14;19.80;1.00
14475;DHT22;7323;50.848;4.334;2023-05-21T10:17:42;19.70;1.00
14475;DHT22;7323;50.848;4.334;2023-05-21T10:20:12;19.70;1.00
14475;DHT22;7323;50.848;4.334;2023-05-21T10:22:38;19.60;1.00
14475;DHT22;7323;50.848;4.334;2023-05-21T10:25:08;19.50;1.00
14475;DHT22;7323;50.848;4.334;2023-05-21T10:27:35;19.80;1.00
14475;DHT22;7323;50.848;4.334;2023-05-21T10:30:03;19.90;1.00
14475;DHT22;7323;50.848;4.334;2023-05-21T10:32:30;19.70;1.00
14475;DHT22;7323;50.848;4.334;2023-05-21T10:34:57;19.80;1.00
14475;DHT22;7323;50.848;4.334;2023-05-21T10:37:23;20.10;1.00
14475;DHT22;7323;50.848;4.334;2023-05-21T10:39:51;20.50;1.00
14475;DHT22;7323;50.848;4.334;2023-05-21T10:42:20;20.50;1.00
14475;DHT22;7323;50.848;4.334;2023-05-21T10:50:41;20.60;1.00
14475;DHT22;7323;50.848;4.334;2023-05-21T10:53:12;20.50;1.00
14475;DHT22;7323;50.848;4.334;2023-05-21T10:58:50;20.10;1.00
14475;DHT22;7323;50.848;4.334;2023-05-21T11:01:17;20.10;1.00
14475;DHT22;7323;50.848;4.334;2023-05-21T11:03:45;20.30;1.00
14475;DHT22;7323;50.848;4.334;2023-05-21T11:06:24;20.40;1.00
14475;DHT22;7323;50.848;4.334;2023-05-21T11:08:51;20.30;1.00
14475;DHT22;7323;50.848;4.334;2023-05-21T11:11:56;20.40;1.00
14475;DHT22;7323;50.848;4.334;2023-05-21T11:14:26;20.70;1.00
14475;DHT22;7323;50.848;4.334;2023-05-21T11:16:52;20.70;1.00
14475;DHT22;7323;50.848;4.334;2023-05-21T11:19:20;20.80;1.00
14475;DHT22;7323;50.848;4.334;2023-05-21T11:21:49;20.80;1.00
14475;DHT22;7323;50.848;4.334;2023-05-21T11:24:42;20.50;1.00
14475;DHT22;7323;50.848;4.334;2023-05-21T11:27:08;20.60;1.00
14475;DHT22;7323;50.848;4.334;2023-05-21T11:29:42;20.70;1.00
14475;DHT22;7323;50.848;4.334;2023-05-21T11:32:10;20.70;1.00
14475;DHT22;7323;50.848;4.334;2023-05-21T11:34:41;20.70;1.00
14475;DHT22;7323;50.848;4.334;2023-05-21T11:39:43;21.00;1.00
14475;DHT22;7323;50.848;4.334;2023-05-21T11:42:09;21.00;1.00
14475;DHT22;7323;50.848;4.334;2023-05-21T11:44:46;20.80;1.00
14475;DHT22;7323;50.848;4.334;2023-05-21T11:47:14;20.60;1.00
14475;DHT22;7323;50.848;4.334;2023-05-21T11:49:40;20.60;1.00
14475;DHT22;7323;50.848;4.334;2023-05-21T11:52:08;20.70;1.00
14475;DHT22;7323;50.848;4.334;2023-05-21T11:54:44;20.90;1.00
14475;DHT22;7323;50.848;4.334;2023-05-21T11:57:18;21.10;1.00
14475;DHT22;7323;50.848;4.334;2023-05-21T11:59:44;20.90;1.00
14475;DHT22;7323;50.848;4.334;2023-05-21T12:02:18;20.80;1.00
14475;DHT22;7323;50.848;4.334;2023-05-21T12:04:45;20.70;1.00
14475;DHT22;7323;50.848;4.334;2023-05-21T12:07:14;20.70;1.00
14475;DHT22;7323;50.848;4.334;2023-05-21T12:09:49;20.60;1.00
14475;DHT22;7323;50.848;4.334;2023-05-21T12:12:20;20.80;1.00
14475;DHT22;7323;50.848;4.334;2023-05-21T12:14:47;20.90;1.00
14475;DHT22;7323;50.848;4.334;2023-05-21T12:17:21;20.90;1.00
14475;DHT22;7323;50.848;4.334;2023-05-21T12:19:49;20.90;1.00
14475;DHT22;7323;50.848;4.334;2023-05-21T12:22:15;21.00;1.00
14475;DHT22;7323;50.848;4.334;2023-05-21T12:24:42;21.00;1.00
14475;DHT22;7323;50.848;4.334;2023-05-21T12:27:11;21.10;1.00
14475;DHT22;7323;50.848;4.334;2023-05-21T12:29:42;21.30;1.00
14475;DHT22;7323;50.848;4.334;2023-05-21T12:32:14;21.40;1.00
14475;DHT22;7323;50.848;4.334;2023-05-21T12:34:49;21.40;1.00
14475;DHT22;7323;50.848;4.334;2023-05-21T12:37:23;21.30;1.00
14475;DHT22;7323;50.848;4.334;2023-05-21T12:39:54;21.20;1.00
14475;DHT22;7323;50.848;4.334;2023-05-21T12:42:30;21.20;1.00
14475;DHT22;7323;50.848;4.334;2023-05-21T12:44:56;21.20;1.00
14475;DHT22;7323;50.848;4.334;2023-05-21T12:47:24;21.10;1.00
14475;DHT22;7323;50.848;4.334;2023-05-21T12:49:56;21.10;1.00
14475;DHT22;7323;50.848;4.334;2023-05-21T12:52:25;21.10;1.00
14475;DHT22;7323;50.848;4.334;2023-05-21T12:54:55;21.20;1.00
14475;DHT22;7323;50.848;4.334;2023-05-21T12:57:26;21.30;1.00
14475;DHT22;7323;50.848;4.334;2023-05-21T12:59:57;21.30;1.00
14475;DHT22;7323;50.848;4.334;2023-05-21T13:02:25;21.40;1.00
14475;DHT22;7323;50.848;4.334;2023-05-21T13:05:10;21.40;1.00
14475;DHT22;7323;50.848;4.334;2023-05-21T13:07:40;21.40;1.00
14475;DHT22;7323;50.848;4.334;2023-05-21T13:10:08;21.20;1.00
14475;DHT22;7323;50.848;4.334;2023-05-21T13:12:34;21.30;1.00
14475;DHT22;7323;50.848;4.334;2023-05-21T13:15:02;21.30;1.00
14475;DHT22;7323;50.848;4.334;2023-05-21T13:17:28;21.30;1.00
14475;DHT22;7323;50.848;4.334;2023-05-21T13:20:11;21.40;1.00
14475;DHT22;7323;50.848;4.334;2023-05-21T13:22:38;21.40;1.00
14475;DHT22;7323;50.848;4.334;2023-05-21T13:25:07;21.50;1.00
14475;DHT22;7323;50.848;4.334;2023-05-21T13:27:33;21.70;1.00
14475;DHT22;7323;50.848;4.334;2023-05-21T13:29:59;21.80;1.00
14475;DHT22;7323;50.848;4.334;2023-05-21T13:32:25;22.00;1.00
14475;DHT22;7323;50.848;4.334;2023-05-21T13:34:51;21.80;1.00
14475;DHT22;7323;50.848;4.334;2023-05-21T13:37:16;21.80;1.00
14475;DHT22;7323;50.848;4.334;2023-05-21T13:39:43;21.70;1.00
14475;DHT22;7323;50.848;4.334;2023-05-21T13:42:08;21.50;1.00
14475;DHT22;7323;50.848;4.334;2023-05-21T13:44:34;21.60;1.00
14475;DHT22;7323;50.848;4.334;2023-05-21T13:47:04;21.70;1.00
14475;DHT22;7323;50.848;4.334;2023-05-21T13:49:32;21.90;1.00
14475;DHT22;7323;50.848;4.334;2023-05-21T13:51:58;22.10;1.00
14475;DHT22;7323;50.848;4.334;2023-05-21T13:54:25;22.10;1.00
14475;DHT22;7323;50.848;4.334;2023-05-21T13:56:51;22.20;1.00
14475;DHT22;7323;50.848;4.334;2023-05-21T13:59:17;22.20;1.00
14475;DHT22;7323;50.848;4.334;2023-05-21T14:01:43;22.10;1.00
14475;DHT22;7323;50.848;4.334;2023-05-21T14:04:10;22.20;1.00
14475;DHT22;7323;50.848;4.334;2023-05-21T14:06:36;22.20;1.00
14475;DHT22;7323;50.848;4.334;2023-05-21T14:09:03;22.10;1.00
14475;DHT22;7323;50.848;4.334;2023-05-21T14:11:30;22.20;1.00
14475;DHT22;7323;50.848;4.334;2023-05-21T14:13:59;22.30;1.00
14475;DHT22;7323;50.848;4.334;2023-05-21T14:16:26;22.20;1.00
14475;DHT22;7323;50.848;4.334;2023-05-21T14:18:52;22.30;1.00
14475;DHT22;7323;50.848;4.334;2023-05-21T14:21:18;22.60;1.00
14475;DHT22;7323;50.848;4.334;2023-05-21T14:23:45;22.90;1.00
14475;DHT22;7323;50.848;4.334;2023-05-21T14:26:17;22.80;1.00
14475;DHT22;7323;50.848;4.334;2023-05-21T14:28:43;22.60;1.00
14475;DHT22;7323;50.848;4.334;2023-05-21T14:31:10;22.50;1.00
14475;DHT22;7323;50.848;4.334;2023-05-21T14:33:36;22.40;1.00
14475;DHT22;7323;50.848;4.334;2023-05-21T14:36:04;22.30;1.00
14475;DHT22;7323;50.848;4.334;2023-05-21T14:38:30;22.20;1.00
14475;DHT22;7323;50.848;4.334;2023-05-21T14:40:55;22.40;1.00
14475;DHT22;7323;50.848;4.334;2023-05-21T14:43:21;22.60;1.00
14475;DHT22;7323;50.848;4.334;2023-05-21T14:45:48;22.60;1.00
14475;DHT22;7323;50.848;4.334;2023-05-21T14:48:17;22.50;1.00
14475;DHT22;7323;50.848;4.334;2023-05-21T14:50:54;22.50;1.00
14475;DHT22;7323;50.848;4.334;2023-05-21T14:53:20;22.60;1.00
14475;DHT22;7323;50.848;4.334;2023-05-21T14:55:46;22.40;1.00
14475;DHT22;7323;50.848;4.334;2023-05-21T14:58:12;22.30;1.00
14475;DHT22;7323;50.848;4.334;2023-05-21T15:00:38;22.40;1.00
14475;DHT22;7323;50.848;4.334;2023-05-21T15:03:04;22.60;1.00
14475;DHT22;7323;50.848;4.334;2023-05-21T15:05:30;22.60;1.00
14475;DHT22;7323;50.848;4.334;2023-05-21T15:07:57;22.50;1.00
14475;DHT22;7323;50.848;4.334;2023-05-21T15:10:23;22.50;1.00
14475;DHT22;7323;50.848;4.334;2023-05-21T15:12:49;22.50;1.00
14475;DHT22;7323;50.848;4.334;2023-05-21T15:15:15;22.50;1.00
14475;DHT22;7323;50.848;4.334;2023-05-21T15:17:42;22.80;1.00
14475;DHT22;7323;50.848;4.334;2023-05-21T15:20:08;22.80;1.00
14475;DHT22;7323;50.848;4.334;2023-05-21T15:22:35;22.90;1.00
14475;DHT22;7323;50.848;4.334;2023-05-21T15:25:01;22.80;1.00
14475;DHT22;7323;50.848;4.334;2023-05-21T15:27:27;22.90;1.00
14475;DHT22;7323;50.848;4.334;2023-05-21T15:29:53;22.80;1.00
14475;DHT22;7323;50.848;4.334;2023-05-21T15:32:19;22.80;1.00
14475;DHT22;7323;50.848;4.334;2023-05-21T15:34:48;22.90;1.00
14475;DHT22;7323;50.848;4.334;2023-05-21T15:37:14;23.00;1.00
14475;DHT22;7323;50.848;4.334;2023-05-21T15:39:43;23.20;1.00
14475;DHT22;7323;50.848;4.334;2023-05-21T15:42:11;23.20;1.00
14475;DHT22;7323;50.848;4.334;2023-05-21T15:44:37;23.30;1.00
14475;DHT22;7323;50.848;4.334;2023-05-21T15:47:03;23.30;1.00
14475;DHT22;7323;50.848;4.334;2023-05-21T15:49:29;23.50;1.00
14475;DHT22;7323;50.848;4.334;2023-05-21T15:51:55;23.30;1.00
14475;DHT22;7323;50.848;4.334;2023-05-21T15:54:23;23.20;1.00
14475;DHT22;7323;50.848;4.334;2023-05-21T15:56:49;23.40;1.00
14475;DHT22;7323;50.848;4.334;2023-05-21T15:59:15;23.40;1.00
14475;DHT22;7323;50.848;4.334;2023-05-21T16:01:41;23.20;1.00
14475;DHT22;7323;50.848;4.334;2023-05-21T16:04:08;23.20;1.00
14475;DHT22;7323;50.848;4.334;2023-05-21T16:06:34;23.30;1.00
14475;DHT22;7323;50.848;4.334;2023-05-21T16:08:59;23.20;1.00
14475;DHT22;7323;50.848;4.334;2023-05-21T16:11:27;23.30;1.00
14475;DHT22;7323;50.848;4.334;2023-05-21T16:13:53;23.40;1.00
14475;DHT22;7323;50.848;4.334;2023-05-21T16:16:19;23.60;1.00
14475;DHT22;7323;50.848;4.334;2023-05-21T16:18:46;23.40;1.00